Time;durP1;ratioP1;P1;durP2;ratioP2;P2;SDS_P1;SDS_P2;PMS_P1;PMS_P2;Temp;Humidity;BMP_temperature;BMP_pressure;BME280_temperature;BME280_humidity;BME280_pressure;Samples;Min_cycle;Max_cycle;Signal;HPM_P1;HPM_P2
2022/08/15 00:00:55;;;;;;;10.82;4.13;;;;;;;19.12;100.00;100025.94;5022056;28;20458;-83
2022/08/15 00:03:28;;;;;;;10.68;4.68;;;;;;;18.96;100.00;100019.59;5011072;28;20434;-84
2022/08/15 00:06:06;;;;;;;8.07;4.53;;;;;;;19.03;100.00;100019.81;5010007;28;20427;-84
2022/08/15 00:08:43;;;;;;;9.93;4.57;;;;;;;19.06;100.00;100023.81;5010146;28;20430;-83
2022/08/15 00:11:20;;;;;;;7.40;4.28;;;;;;;19.11;100.00;100020.78;5011269;28;20435;-83
2022/08/15 00:13:51;;;;;;;9.68;3.95;;;;;;;19.09;100.00;100015.63;5028103;28;20429;-84
2022/08/15 00:16:25;;;;;;;10.38;4.13;;;;;;;19.12;100.00;100014.91;5022385;28;20944;-85
2022/08/15 00:18:58;;;;;;;7.53;4.20;;;;;;;19.12;100.00;100014.91;5022047;28;20430;-84
2022/08/15 00:21:33;;;;;;;6.82;4.28;;;;;;;19.09;100.00;100009.31;5009600;28;20791;-83
2022/08/15 00:24:08;;;;;;;7.45;4.00;;;;;;;19.12;100.00;99998.38;5026654;28;20411;-83
2022/08/15 00:26:36;;;;;;;7.97;3.90;;;;;;;19.06;100.00;100007.25;5010518;28;20426;-83
2022/08/15 00:29:06;;;;;;;6.55;3.67;;;;;;;19.06;100.00;100007.25;5024119;28;20419;-83
2022/08/15 00:31:35;;;;;;;7.50;3.95;;;;;;;18.92;100.00;99996.66;5021180;28;20419;-84
2022/08/15 00:34:04;;;;;;;8.10;3.78;;;;;;;18.91;100.00;100006.09;5010775;28;20790;-83
2022/08/15 00:36:33;;;;;;;9.48;3.80;;;;;;;18.96;100.00;100008.56;5010541;28;20427;-83
2022/08/15 00:39:07;;;;;;;6.55;3.47;;;;;;;18.95;100.00;100004.25;5013647;28;20421;-83
2022/08/15 00:41:43;;;;;;;7.93;3.80;;;;;;;18.83;100.00;99999.56;5029023;28;20791;-83
2022/08/15 00:44:20;;;;;;;7.10;4.20;;;;;;;18.72;100.00;100003.97;5031351;28;20427;-84
2022/08/15 00:46:57;;;;;;;7.97;3.90;;;;;;;18.66;100.00;100000.66;5029121;28;20441;-84
2022/08/15 00:49:32;;;;;;;9.25;3.53;;;;;;;18.74;100.00;99996.97;5013432;28;20426;-83
2022/08/15 00:52:10;;;;;;;7.82;3.33;;;;;;;18.72;100.00;99992.94;5032316;28;20427;-83
2022/08/15 00:54:47;;;;;;;7.75;3.83;;;;;;;18.73;100.00;99995.34;5027160;28;20430;-83
2022/08/15 00:57:19;;;;;;;6.50;3.63;;;;;;;18.46;100.00;99994.19;5023632;28;20431;-85
2022/08/15 00:59:51;;;;;;;7.80;3.80;;;;;;;18.33;100.00;99987.94;5014770;28;20768;-83
2022/08/15 01:02:25;;;;;;;7.03;3.65;;;;;;;18.18;100.00;99989.47;5008845;28;20430;-84
2022/08/15 01:04:54;;;;;;;8.57;3.70;;;;;;;18.12;100.00;99983.41;5026118;28;20430;-85
2022/08/15 01:07:29;;;;;;;7.00;3.55;;;;;;;18.20;100.00;99989.91;5021199;28;20617;-84
2022/08/15 01:09:58;;;;;;;6.28;3.60;;;;;;;18.09;100.00;99980.53;5027329;28;20418;-84
2022/08/15 01:12:32;;;;;;;6.75;3.60;;;;;;;18.21;100.00;99977.75;5007257;28;20427;-83
2022/08/15 01:15:11;;;;;;;6.68;3.47;;;;;;;18.27;100.00;99965.34;5007776;28;20427;-83
2022/08/15 01:17:44;;;;;;;8.20;3.50;;;;;;;18.27;100.00;99975.53;5027872;28;20457;-84
2022/08/15 01:20:22;;;;;;;6.72;3.83;;;;;;;18.24;100.00;99971.53;5029380;28;20419;-85
2022/08/15 01:23:04;;;;;;;7.75;3.80;;;;;;;18.17;100.00;99969.41;5029925;28;20787;-84
2022/08/15 01:25:44;;;;;;;6.75;3.42;;;;;;;18.11;100.00;99957.00;5028395;28;20415;-84
2022/08/15 01:28:16;;;;;;;9.38;3.97;;;;;;;18.05;100.00;99960.34;5029410;28;20431;-83
2022/08/15 01:30:54;;;;;;;6.55;3.53;;;;;;;18.07;100.00;99958.84;5010902;28;20431;-83
2022/08/15 01:33:29;;;;;;;6.15;3.55;;;;;;;18.15;100.00;99966.19;5029700;28;20431;-84
2022/08/15 01:35:59;;;;;;;6.55;3.40;;;;;;;18.20;100.00;99959.63;5007969;28;20787;-84
2022/08/15 01:38:39;;;;;;;6.07;3.33;;;;;;;17.99;100.00;99932.25;5032124;28;20430;-83
2022/08/15 01:41:15;;;;;;;7.07;3.40;;;;;;;18.11;100.00;99950.72;5032869;28;20436;-83
2022/08/15 01:43:56;;;;;;;8.63;3.20;;;;;;;18.14;100.00;99953.56;5003716;28;20435;-84
2022/08/15 01:46:33;;;;;;;8.23;3.85;;;;;;;18.07;100.00;99944.31;5028964;28;20435;-84
2022/08/15 01:49:12;;;;;;;6.43;3.40;;;;;;;17.94;100.00;99921.50;5024031;28;20431;-84
2022/08/15 01:51:42;;;;;;;9.52;3.55;;;;;;;17.99;100.00;99930.34;5018941;28;20797;-83
2022/08/15 01:54:15;;;;;;;6.10;3.10;;;;;;;17.84;100.00;99933.75;5013144;28;20427;-84
2022/08/15 01:56:50;;;;;;;6.78;3.58;;;;;;;17.82;100.00;99936.06;5024812;28;20438;-83
2022/08/15 01:59:24;;;;;;;5.90;3.50;;;;;;;17.80;100.00;99946.59;5027256;28;20411;-83
2022/08/15 02:02:00;;;;;;;6.53;3.10;;;;;;;17.81;100.00;99939.97;5007598;28;20440;-84
2022/08/15 02:04:36;;;;;;;9.27;3.50;;;;;;;17.67;100.00;99948.59;5008550;28;20415;-83
2022/08/15 02:07:08;;;;;;;9.07;3.43;;;;;;;17.65;100.00;99948.13;5024078;28;20519;-84
2022/08/15 02:09:37;;;;;;;7.13;3.60;;;;;;;17.64;100.00;99952.81;5004695;28;20407;-84
2022/08/15 02:12:14;;;;;;;7.22;3.25;;;;;;;17.53;100.00;99948.94;5008547;28;20427;-84
2022/08/15 02:14:42;;;;;;;6.30;3.25;;;;;;;17.57;100.00;99946.31;5004543;28;20426;-83
2022/08/15 02:17:16;;;;;;;7.47;3.45;;;;;;;17.60;100.00;99945.63;5022324;28;20433;-84
2022/08/15 02:19:50;;;;;;;7.97;3.33;;;;;;;17.67;100.00;99943.88;5006145;28;20445;-85
2022/08/15 02:22:25;;;;;;;9.85;3.80;;;;;;;17.69;100.00;99940.81;5029185;28;20775;-84
2022/08/15 02:24:54;;;;;;;7.30;3.53;;;;;;;17.48;100.00;99941.72;5029027;28;20419;-83
2022/08/15 02:27:33;;;;;;;11.00;3.50;;;;;;;17.40;100.00;99928.09;5019569;28;20769;-83
2022/08/15 02:30:11;;;;;;;8.45;3.47;;;;;;;17.33;100.00;99925.91;5016809;28;20414;-83
2022/08/15 02:32:46;;;;;;;6.95;3.38;;;;;;;17.53;100.00;99942.66;5005840;28;20419;-84
2022/08/15 02:35:19;;;;;;;6.95;3.80;;;;;;;17.56;100.00;99947.44;5032785;28;20923;-83
2022/08/15 02:37:48;;;;;;;7.03;3.47;;;;;;;17.58;100.00;99948.72;5014040;28;20415;-83
2022/08/15 02:40:22;;;;;;;9.65;3.55;;;;;;;17.56;100.00;99942.75;5022000;28;20938;-83
2022/08/15 02:42:57;;;;;;;10.40;3.60;;;;;;;17.48;100.00;99930.72;5025436;28;20933;-83
2022/08/15 02:45:25;;;;;;;5.95;3.50;;;;;;;17.47;100.00;99931.06;5030907;28;20891;-84
2022/08/15 02:47:59;;;;;;;8.77;3.60;;;;;;;17.47;100.00;99929.13;5007416;28;20499;-83
2022/08/15 02:50:33;;;;;;;7.50;3.53;;;;;;;17.56;100.00;99930.94;5014000;28;20419;-83
2022/08/15 02:53:10;;;;;;;7.30;3.55;;;;;;;17.58;100.00;99926.72;5014910;28;20415;-83
2022/08/15 02:55:46;;;;;;;6.43;3.60;;;;;;;17.42;100.00;99936.81;5036934;28;20423;-82
2022/08/15 02:58:21;;;;;;;6.88;3.55;;;;;;;17.37;100.00;99935.06;5034311;28;20425;-83
2022/08/15 03:00:54;;;;;;;7.25;3.78;;;;;;;17.22;100.00;99936.56;5008123;28;20427;-83
2022/08/15 03:03:22;;;;;;;7.40;3.67;;;;;;;17.20;100.00;99932.56;5030328;28;20415;-84
2022/08/15 03:05:56;;;;;;;6.93;3.92;;;;;;;17.20;100.00;99930.59;5038892;28;20422;-83
2022/08/15 03:08:29;;;;;;;7.13;3.70;;;;;;;17.18;100.00;99930.16;5012690;28;20430;-83
2022/08/15 03:10:58;;;;;;;7.32;4.00;;;;;;;17.07;100.00;99931.72;5013398;28;20419;-82
2022/08/15 03:13:35;;;;;;;8.70;3.80;;;;;;;17.10;100.00;99936.56;5030180;28;20415;-83
2022/08/15 03:16:05;;;;;;;5.97;3.70;;;;;;;17.12;100.00;99935.09;5031242;28;20434;-82
2022/08/15 03:18:42;;;;;;;7.45;3.90;;;;;;;17.16;100.00;99932.44;5017098;28;20401;-82
2022/08/15 03:21:19;;;;;;;10.02;3.90;;;;;;;17.25;100.00;99935.88;5024872;28;20416;-82
2022/08/15 03:23:53;;;;;;;9.30;3.85;;;;;;;17.30;100.00;99932.09;5014104;28;20918;-83
2022/08/15 03:26:27;;;;;;;7.10;4.00;;;;;;;17.32;100.00;99935.31;5042458;28;20902;-83
2022/08/15 03:29:04;;;;;;;7.53;3.93;;;;;;;17.34;100.00;99922.84;5013449;28;20922;-84
2022/08/15 03:31:40;;;;;;;5.85;3.72;;;;;;;17.39;100.00;99932.00;5006698;28;20772;-83
2022/08/15 03:34:19;;;;;;;8.18;3.70;;;;;;;17.47;100.00;99928.31;5013712;28;20419;-82
2022/08/15 03:36:52;;;;;;;6.45;3.67;;;;;;;17.46;100.00;99932.22;5014078;28;20423;-82
2022/08/15 03:39:24;;;;;;;7.22;3.80;;;;;;;17.50;100.00;99927.63;5013141;28;20480;-83
2022/08/15 03:41:59;;;;;;;8.00;3.90;;;;;;;17.50;100.00;99931.16;5013776;28;20419;-82
2022/08/15 03:44:34;;;;;;;9.15;3.67;;;;;;;17.50;100.00;99922.13;5030040;28;20427;-82
2022/08/15 03:47:07;;;;;;;6.65;3.90;;;;;;;17.50;100.00;99909.16;5029711;28;20426;-82
2022/08/15 03:49:36;;;;;;;8.27;4.00;;;;;;;17.47;100.00;99918.13;5012950;28;20446;-83
2022/08/15 03:52:22;;;;;;;7.35;3.85;;;;;;;17.49;100.00;99912.25;5029616;28;20910;-84
2022/08/15 03:54:55;;;;;;;6.53;4.05;;;;;;;17.50;100.00;99914.66;5014342;28;20423;-83
2022/08/15 03:57:29;;;;;;;9.07;4.13;;;;;;;17.50;100.00;99911.13;5029973;28;20456;-83
2022/08/15 04:00:07;;;;;;;6.53;4.00;;;;;;;17.43;100.00;99906.19;5029866;28;20411;-82
2022/08/15 04:02:43;;;;;;;8.50;4.00;;;;;;;17.37;100.00;99913.06;5047436;28;20434;-83
2022/08/15 04:05:12;;;;;;;9.82;3.92;;;;;;;17.51;100.00;99923.72;5033155;28;20415;-82
2022/08/15 04:07:45;;;;;;;7.83;3.90;;;;;;;17.46;100.00;99921.22;5024888;28;20421;-82
2022/08/15 04:10:18;;;;;;;7.28;4.18;;;;;;;17.50;100.00;99916.63;5027680;28;20429;-82
2022/08/15 04:12:52;;;;;;;10.57;4.32;;;;;;;17.46;100.00;99918.47;5028589;28;20427;-82
2022/08/15 04:15:21;;;;;;;8.15;4.28;;;;;;;17.45;100.00;99911.34;5034390;28;20431;-83
2022/08/15 04:17:56;;;;;;;6.90;4.10;;;;;;;17.44;100.00;99902.31;5038452;28;20434;-83
2022/08/15 04:20:24;;;;;;;8.20;4.03;;;;;;;17.48;100.00;99916.97;5017568;28;20422;-82
2022/08/15 04:22:52;;;;;;;7.60;4.10;;;;;;;17.46;100.00;99904.72;5017171;28;20425;-82
2022/08/15 04:25:31;;;;;;;7.90;3.92;;;;;;;17.51;100.00;99916.28;5017022;28;20415;-83
2022/08/15 04:28:03;;;;;;;7.35;4.32;;;;;;;17.54;100.00;99914.78;5010967;28;20436;-83
2022/08/15 04:30:40;;;;;;;7.13;4.07;;;;;;;17.56;100.00;99906.19;5026584;28;20411;-83
2022/08/15 04:33:15;;;;;;;7.63;4.15;;;;;;;17.50;100.00;99895.41;5015040;28;20423;-84
2022/08/15 04:35:53;;;;;;;9.82;4.30;;;;;;;17.51;100.00;99893.44;5008407;28;20427;-83
2022/08/15 04:38:27;;;;;;;8.20;4.05;;;;;;;17.57;100.00;99899.53;5030029;28;20415;-83
2022/08/15 04:41:03;;;;;;;9.60;4.25;;;;;;;17.60;100.00;99902.38;5030158;28;20783;-83
2022/08/15 04:43:38;;;;;;;9.73;4.53;;;;;;;17.61;100.00;99893.00;5027778;28;20431;-84
2022/08/15 04:46:19;;;;;;;9.13;4.53;;;;;;;17.61;100.00;99898.50;5011168;28;20434;-84
2022/08/15 04:48:48;;;;;;;8.68;4.30;;;;;;;17.70;100.00;99895.59;5026240;28;20929;-82
2022/08/15 04:51:21;;;;;;;6.63;4.22;;;;;;;17.74;100.00;99898.47;5012749;28;20437;-83
2022/08/15 04:53:54;;;;;;;9.73;4.60;;;;;;;17.76;100.00;99898.91;5013430;28;20942;-83
2022/08/15 04:56:23;;;;;;;6.97;4.20;;;;;;;17.82;100.00;99906.59;5026483;28;20805;-83
2022/08/15 04:58:56;;;;;;;7.50;4.45;;;;;;;17.86;100.00;99901.19;5030946;28;20432;-82
2022/08/15 05:01:31;;;;;;;8.32;4.53;;;;;;;17.96;100.00;99894.44;5027250;28;20805;-83
2022/08/15 05:04:00;;;;;;;6.53;4.10;;;;;;;17.96;100.00;99892.47;5013264;28;20419;-83
2022/08/15 05:06:34;;;;;;;8.05;4.30;;;;;;;18.00;100.00;99887.88;5013037;28;20430;-84
2022/08/15 05:09:07;;;;;;;6.93;4.50;;;;;;;18.27;100.00;99892.91;5028133;28;20780;-82
2022/08/15 05:11:35;;;;;;;8.25;4.50;;;;;;;18.91;100.00;99888.34;5013852;28;20446;-83
2022/08/15 05:14:04;;;;;;;8.15;4.53;;;;;;;20.47;100.00;99889.75;5024378;28;20424;-83
2022/08/15 05:16:36;;;;;;;7.73;4.30;;;;;;;21.22;100.00;99877.22;5028082;28;20430;-83
2022/08/15 05:19:07;;;;;;;8.25;4.28;;;;;;;21.31;100.00;99884.44;5029136;28;20422;-83
2022/08/15 05:21:40;;;;;;;8.73;3.75;;;;;;;21.70;100.00;99887.03;4995783;28;20828;-83
2022/08/15 05:24:09;;;;;;;7.22;3.58;;;;;;;22.28;100.00;99882.97;5021501;28;20458;-83
2022/08/15 05:26:38;;;;;;;7.22;3.80;;;;;;;22.55;100.00;99880.91;5012843;28;20422;-84
2022/08/15 05:29:11;;;;;;;6.57;3.70;;;;;;;22.37;100.00;99885.47;5025051;28;20426;-83
2022/08/15 05:31:46;;;;;;;6.45;3.70;;;;;;;22.04;100.00;99887.03;5027068;28;20438;-85
2022/08/15 05:34:20;;;;;;;8.35;3.90;;;;;;;21.16;100.00;99891.75;5011341;28;20895;-83
2022/08/15 05:36:55;;;;;;;7.95;4.25;;;;;;;20.87;100.00;99892.06;5024074;28;20431;-84
2022/08/15 05:39:31;;;;;;;8.60;4.00;;;;;;;20.71;100.00;99892.22;5029007;28;20431;-84
2022/08/15 05:42:21;;;;;;;6.78;4.20;;;;;;;20.53;100.00;99886.31;5011782;28;20426;-82
2022/08/15 05:44:56;;;;;;;11.93;4.25;;;;;;;20.26;100.00;99890.13;5006165;28;20417;-84
2022/08/15 05:47:34;;;;;;;8.40;4.20;;;;;;;20.15;100.00;99892.69;5003184;28;20803;-82
2022/08/15 05:50:13;;;;;;;6.97;4.30;;;;;;;19.88;100.00;99890.56;5012414;28;20411;-82
2022/08/15 05:52:51;;;;;;;6.90;4.40;;;;;;;19.86;100.00;99884.63;5014366;28;20427;-83
2022/08/15 05:55:31;;;;;;;9.23;5.03;;;;;;;19.96;100.00;99893.50;5010715;28;20427;-82
2022/08/15 05:58:19;;;;;;;10.35;4.63;;;;;;;20.04;100.00;99890.50;5025083;28;20446;-82
2022/08/15 06:00:51;;;;;;;10.68;5.00;;;;;;;20.17;100.00;99888.38;5011745;28;20916;-82
2022/08/15 06:03:25;;;;;;;9.90;4.85;;;;;;;20.14;100.00;99880.84;5024670;28;20427;-83
2022/08/15 06:05:57;;;;;;;7.90;4.60;;;;;;;20.14;100.00;99877.28;5026274;28;20511;-83
2022/08/15 06:08:36;;;;;;;7.38;4.75;;;;;;;20.30;100.00;99886.28;5007530;28;20427;-83
2022/08/15 06:11:11;;;;;;;9.80;4.72;;;;;;;20.29;100.00;99881.91;5008570;28;20811;-82
2022/08/15 06:13:49;;;;;;;7.90;4.90;;;;;;;20.54;100.00;99878.84;5019812;28;20435;-82
2022/08/15 06:16:29;;;;;;;7.73;4.77;;;;;;;20.59;100.00;99873.00;5010717;28;20423;-82
2022/08/15 06:19:12;;;;;;;11.52;5.53;;;;;;;20.52;100.00;99870.09;5024532;28;20423;-80
2022/08/15 06:21:47;;;;;;;8.05;5.07;;;;;;;20.49;100.00;99873.59;5027093;28;20435;-83
2022/08/15 06:24:29;;;;;;;11.15;5.35;;;;;;;20.33;100.00;99870.94;5021317;28;20920;-83
2022/08/15 06:27:03;;;;;;;9.93;5.57;;;;;;;20.44;100.00;99885.75;5025797;28;20422;-81
2022/08/15 06:29:53;;;;;;;9.80;5.40;;;;;;;20.51;100.00;99874.03;5025402;28;20427;-82
2022/08/15 06:32:37;;;;;;;8.75;5.38;;;;;;;20.75;100.00;99883.97;5009459;28;20426;-85
2022/08/15 06:35:20;;;;;;;8.63;5.70;;;;;;;20.76;100.00;99882.81;5027428;28;21009;-83
2022/08/15 06:38:03;;;;;;;8.40;5.60;;;;;;;21.09;100.00;99875.84;5002499;28;20432;-85
2022/08/15 06:40:49;;;;;;;8.38;5.55;;;;;;;21.11;100.00;99881.00;5024013;28;20420;-81
2022/08/15 06:43:22;;;;;;;9.02;6.07;;;;;;;21.23;100.00;99880.78;5027269;28;20434;-83
2022/08/15 06:46:07;;;;;;;10.90;6.20;;;;;;;21.30;100.00;99867.06;4997682;28;20423;-84
2022/08/15 06:48:43;;;;;;;10.73;5.90;;;;;;;21.36;100.00;99867.53;5018338;28;20424;-79
2022/08/15 06:51:13;;;;;;;10.70;5.85;;;;;;;21.32;100.00;99873.03;5018773;28;20417;-81
2022/08/15 06:53:51;;;;;;;8.20;5.80;;;;;;;21.44;100.00;99876.75;5028443;28;20427;-81
2022/08/15 06:56:27;;;;;;;10.07;6.20;;;;;;;21.34;100.00;99864.34;5028691;28;20427;-80
2022/08/15 06:59:02;;;;;;;9.93;6.13;;;;;;;21.73;100.00;99864.13;5001816;28;20425;-79
2022/08/15 07:01:44;;;;;;;11.02;6.35;;;;;;;21.80;100.00;99855.88;5008149;28;20427;-81
2022/08/15 07:04:20;;;;;;;11.57;6.70;;;;;;;21.87;100.00;99855.19;5024658;28;20423;-81
2022/08/15 07:07:03;;;;;;;12.07;6.18;;;;;;;21.85;100.00;99855.56;5020821;28;20410;-82
2022/08/15 07:09:46;;;;;;;10.70;6.38;;;;;;;21.86;100.00;99853.59;5002752;28;20440;-83
2022/08/15 07:12:25;;;;;;;11.45;6.25;;;;;;;21.90;100.00;99835.84;4998767;28;20442;-82
2022/08/15 07:15:04;;;;;;;13.43;6.60;;;;;;;22.28;100.00;99848.94;4999827;28;20956;-81
2022/08/15 07:17:43;;;;;;;10.25;6.40;;;;;;;22.41;100.00;99839.19;5015688;28;20479;-80
2022/08/15 07:20:17;;;;;;;10.63;6.47;;;;;;;22.61;100.00;99830.63;4999438;28;20423;-83
2022/08/15 07:22:52;;;;;;;9.55;6.57;;;;;;;22.54;100.00;99826.63;5000969;28;20773;-82
2022/08/15 07:25:29;;;;;;;12.23;6.57;;;;;;;22.67;100.00;99840.22;5006311;28;20427;-80
2022/08/15 07:28:06;;;;;;;12.97;6.87;;;;;;;22.64;100.00;99836.22;4997954;28;20520;-82
2022/08/15 07:30:46;;;;;;;12.95;6.75;;;;;;;22.84;100.00;99838.75;5015058;28;20431;-82
2022/08/15 07:33:40;;;;;;;10.30;6.68;;;;;;;22.95;100.00;99823.00;5016160;28;21761;-83
2022/08/15 07:36:20;;;;;;;12.65;6.78;;;;;;;23.43;100.00;99831.25;5006443;28;21941;-81
2022/08/15 07:38:57;;;;;;;9.50;6.13;;;;;;;23.33;100.00;99831.22;4991943;28;20812;-82
2022/08/15 07:41:29;;;;;;;11.30;6.32;;;;;;;23.55;100.00;99832.13;5010462;28;20441;-82
2022/08/15 07:44:20;;;;;;;9.63;6.30;;;;;;;23.57;100.00;99827.78;5012035;28;20436;-82
2022/08/15 07:46:58;;;;;;;11.20;6.53;;;;;;;23.84;100.00;99829.47;4996233;28;20429;-79
2022/08/15 07:49:35;;;;;;;9.88;6.05;;;;;;;23.93;100.00;99829.91;5019876;28;20402;-81
2022/08/15 07:52:21;;;;;;;15.23;6.30;;;;;;;24.08;100.00;99833.53;5002810;28;20446;-79
2022/08/15 07:54:57;;;;;;;10.07;6.40;;;;;;;24.28;100.00;99834.78;5000156;28;20439;-83
2022/08/15 07:57:34;;;;;;;11.85;6.72;;;;;;;24.44;100.00;99831.63;5015775;28;22022;-82
2022/08/15 08:00:13;;;;;;;12.48;6.65;;;;;;;24.55;100.00;99828.06;4998914;28;20429;-82
2022/08/15 08:03:08;;;;;;;10.23;6.55;;;;;;;24.58;100.00;99827.25;5018615;28;20426;-84
2022/08/15 08:05:51;;;;;;;13.75;6.55;;;;;;;24.82;100.00;99830.47;5001783;28;21655;-84
2022/08/15 08:08:22;;;;;;;10.02;6.05;;;;;;;24.88;100.00;99835.25;4981835;28;20620;-82
2022/08/15 08:11:04;;;;;;;10.43;6.40;;;;;;;25.11;100.00;99829.25;4986410;28;20417;-82
2022/08/15 08:13:44;;;;;;;14.25;6.90;;;;;;;25.26;100.00;99827.25;4989646;28;20426;-83
2022/08/15 08:16:28;;;;;;;9.30;5.93;;;;;;;25.32;100.00;99838.75;4990942;28;20441;-82
2022/08/15 08:19:09;;;;;;;9.07;6.30;;;;;;;25.50;100.00;99833.16;5002560;28;20428;-80
2022/08/15 08:21:52;;;;;;;10.98;6.72;;;;;;;25.35;100.00;99820.50;4986648;28;20417;-82
2022/08/15 08:24:37;;;;;;;10.13;6.38;;;;;;;25.26;100.00;99824.47;5006269;28;20750;-85
2022/08/15 08:27:24;;;;;;;8.90;6.47;;;;;;;25.45;100.00;99822.44;5005470;28;20425;-84
2022/08/15 08:30:03;;;;;;;10.05;6.60;;;;;;;25.46;100.00;99829.59;5003269;28;20435;-82
2022/08/15 08:32:44;;;;;;;15.57;7.00;;;;;;;25.31;100.00;99839.94;4996178;28;20703;-83
2022/08/15 08:35:32;;;;;;;20.20;7.40;;;;;;;25.46;100.00;99835.16;4996153;28;20429;-82
2022/08/15 08:38:20;;;;;;;11.10;6.40;;;;;;;25.33;100.00;99834.81;4996801;28;20435;-84
2022/08/15 08:44:04;;;;;;;10.52;6.32;;;;;;;25.49;100.00;99826.00;5003272;28;20445;-82
2022/08/15 08:47:00;;;;;;;13.75;6.28;;;;;;;25.75;100.00;99835.06;5001436;28;20964;-83
2022/08/15 08:49:41;;;;;;;11.52;6.32;;;;;;;25.96;100.00;99832.19;5011672;28;20419;-80
2022/08/15 08:52:25;;;;;;;9.52;6.10;;;;;;;25.89;100.00;99832.22;5015152;28;20446;-79
2022/08/15 08:55:00;;;;;;;8.90;6.20;;;;;;;26.00;100.00;99836.97;5020104;28;20425;-80
2022/08/15 08:57:36;;;;;;;10.60;6.20;;;;;;;25.93;100.00;99824.63;4982472;28;20820;-84
2022/08/15 09:00:15;;;;;;;11.43;6.50;;;;;;;25.90;100.00;99827.44;5006924;28;20427;-81
2022/08/15 09:02:47;;;;;;;10.63;6.25;;;;;;;26.01;100.00;99824.59;4986733;28;20437;-82
2022/08/15 09:05:27;;;;;;;11.60;6.35;;;;;;;26.08;100.00;99836.53;4987310;28;20914;-80
2022/08/15 09:08:05;;;;;;;12.93;6.60;;;;;;;26.22;100.00;99834.88;4994221;28;20441;-83
2022/08/15 09:10:43;;;;;;;10.40;6.45;;;;;;;26.34;100.00;99828.03;4987341;28;20637;-83
2022/08/15 09:13:35;;;;;;;8.77;6.13;;;;;;;26.34;100.00;99820.44;4985249;28;20427;-82
2022/08/15 09:16:19;;;;;;;10.25;6.43;;;;;;;26.27;100.00;99821.28;4985420;28;20419;-84
2022/08/15 09:19:02;;;;;;;12.13;6.47;;;;;;;26.12;100.00;99814.22;5002839;28;20453;-84
2022/08/15 09:21:30;;;;;;;11.93;6.25;;;;;;;26.24;100.00;99815.72;5000633;28;20429;-84
2022/08/15 09:23:59;;;;;;;10.55;6.47;;;;;;;26.31;100.00;99804.53;5003459;28;20430;-85
2022/08/15 09:26:34;;;;;;;12.23;6.53;;;;;;;26.40;98.79;99801.28;5010597;28;20417;-83
2022/08/15 09:29:07;;;;;;;12.07;6.67;;;;;;;26.45;100.00;99817.59;4990372;28;20954;-80
2022/08/15 09:31:39;;;;;;;11.32;6.63;;;;;;;26.63;97.92;99807.06;4987332;28;20442;-80
2022/08/15 09:34:47;;;;;;;10.18;6.32;;;;;;;26.68;100.00;99803.06;5002864;28;20731;-82
2022/08/15 09:37:42;;;;;;;9.93;6.43;;;;;;;27.04;100.00;99811.13;4981997;28;20442;-82
2022/08/15 09:40:48;;;;;;;13.60;6.80;;;;;;;27.37;98.17;99802.41;4984333;28;20421;-83
2022/08/15 09:43:44;;;;;;;13.32;6.50;;;;;;;27.48;95.63;99789.91;5006533;28;21785;-86
2022/08/15 09:46:40;;;;;;;12.68;7.82;;;;;;;27.71;98.22;99802.41;5010244;28;20431;-84
2022/08/15 09:49:32;;;;;;;13.48;6.93;;;;;;;27.58;92.23;99801.38;5014784;28;20803;-81
2022/08/15 09:52:14;;;;;;;12.25;7.18;;;;;;;27.53;95.60;99794.25;5002946;28;20435;-85
2022/08/15 09:54:54;;;;;;;11.85;7.03;;;;;;;27.69;97.81;99798.44;5014870;28;20919;-82
2022/08/15 09:57:34;;;;;;;11.82;6.45;;;;;;;27.63;98.39;99793.34;5015994;28;20675;-83
2022/08/15 10:00:24;;;;;;;11.77;6.43;;;;;;;27.65;90.02;99799.28;4993292;28;20434;-82
2022/08/15 10:02:59;;;;;;;11.07;6.60;;;;;;;27.66;90.89;99792.50;5016961;28;20434;-83
2022/08/15 10:05:43;;;;;;;9.27;6.70;;;;;;;27.65;97.13;99790.13;5012086;28;20437;-83
2022/08/15 10:08:16;;;;;;;12.80;6.80;;;;;;;27.68;100.00;99782.91;4996112;28;20446;-84
2022/08/15 10:10:52;;;;;;;12.27;6.20;;;;;;;27.88;85.38;99781.00;5013983;28;21837;-85
2022/08/15 10:13:28;;;;;;;9.88;6.38;;;;;;;27.83;89.36;99778.69;4995388;28;20441;-84
2022/08/15 10:16:01;;;;;;;10.20;6.28;;;;;;;27.98;94.85;99773.69;5009053;28;20423;-83
2022/08/15 10:19:08;;;;;;;11.20;6.45;;;;;;;28.16;86.55;99767.88;4987675;28;20425;-82
2022/08/15 10:21:44;;;;;;;8.30;6.40;;;;;;;28.16;93.16;99767.88;4982292;28;20439;-83
2022/08/15 10:24:24;;;;;;;12.90;7.05;;;;;;;27.90;85.24;99736.66;5006955;28;20782;-83
2022/08/15 10:27:08;;;;;;;9.95;6.30;;;;;;;28.25;88.31;99765.31;4982383;28;20427;-85
2022/08/15 10:29:48;;;;;;;11.25;6.50;;;;;;;28.02;89.25;99770.88;5006310;28;20431;-79
2022/08/15 10:32:26;;;;;;;10.43;7.10;;;;;;;27.86;87.18;99765.88;4985659;28;20427;-85
2022/08/15 10:35:04;;;;;;;9.90;6.40;;;;;;;28.16;89.35;99771.44;5003605;28;20427;-84
2022/08/15 10:37:51;;;;;;;10.23;6.65;;;;;;;27.92;86.26;99751.00;5003861;28;20430;-83
2022/08/15 10:40:38;;;;;;;13.23;6.47;;;;;;;27.88;90.17;99753.03;5001359;28;20452;-83
2022/08/15 10:43:30;;;;;;;8.60;6.22;;;;;;;28.13;90.81;99744.34;5004178;28;20439;-83
2022/08/15 10:46:17;;;;;;;8.63;6.10;;;;;;;27.92;93.40;99745.41;5005674;28;21337;-84
2022/08/15 10:49:03;;;;;;;10.93;6.53;;;;;;;28.15;86.27;99747.47;5006200;28;20444;-85
2022/08/15 10:52:01;;;;;;;9.10;6.38;;;;;;;28.29;81.13;99746.47;5007271;28;20982;-84
2022/08/15 10:54:56;;;;;;;11.85;5.90;;;;;;;28.43;87.09;99736.25;5006136;28;20437;-82
2022/08/15 10:57:48;;;;;;;9.88;6.15;;;;;;;28.75;88.57;99741.31;4995604;28;20446;-83
2022/08/15 11:00:37;;;;;;;9.98;6.40;;;;;;;28.93;80.92;99743.00;4984643;28;20434;-85
2022/08/15 11:03:18;;;;;;;9.65;6.40;;;;;;;28.99;79.46;99736.47;5003611;28;20633;-86
2022/08/15 11:05:57;;;;;;;10.50;6.43;;;;;;;28.99;84.73;99742.06;4991045;28;20445;-81
2022/08/15 11:08:30;;;;;;;10.30;6.22;;;;;;;29.26;82.30;99734.78;4994624;28;20427;-86
2022/08/15 11:11:10;;;;;;;10.00;6.07;;;;;;;29.29;79.01;99720.72;5009160;28;22338;-85
2022/08/15 11:13:44;;;;;;;11.55;6.40;;;;;;;29.08;79.74;99735.09;5013193;28;20436;-82
2022/08/15 11:16:25;;;;;;;9.75;6.35;;;;;;;28.55;82.16;99729.28;5013905;28;20428;-86
2022/08/15 11:18:56;;;;;;;14.43;7.47;;;;;;;28.17;82.69;99717.09;5007187;28;20446;-89
2022/08/15 11:21:38;;;;;;;12.90;7.10;;;;;;;28.11;86.56;99731.97;5010759;28;20420;-91
2022/08/15 11:24:12;;;;;;;11.52;7.38;;;;;;;27.91;82.12;99740.22;4991646;28;20773;-86
2022/08/15 11:26:46;;;;;;;10.43;6.50;;;;;;;27.88;90.51;99736.28;4987790;28;20425;-89
2022/08/15 11:29:19;;;;;;;9.32;6.40;;;;;;;27.87;85.15;99740.31;4989759;28;20444;-87
2022/08/15 11:31:55;;;;;;;12.23;6.70;;;;;;;27.90;84.33;99728.28;4980349;28;20810;-85
2022/08/15 11:34:27;;;;;;;9.30;6.57;;;;;;;27.98;85.23;99723.38;5006322;28;20457;-82
2022/08/15 11:37:09;;;;;;;10.90;6.70;;;;;;;28.09;84.23;99723.22;5005861;28;21080;-87
2022/08/15 11:39:47;;;;;;;9.82;6.47;;;;;;;28.06;88.01;99724.06;5004802;28;21227;-86
2022/08/15 11:42:23;;;;;;;10.32;6.43;;;;;;;27.98;84.73;99721.34;4980105;28;20427;-85
2022/08/15 11:45:00;;;;;;;9.68;6.43;;;;;;;27.79;99.19;99734.00;4985585;28;20430;-86
2022/08/15 11:47:36;;;;;;;9.23;5.80;;;;;;;27.42;92.08;99721.72;5007787;28;20436;-85
2022/08/15 11:50:08;;;;;;;7.70;5.60;;;;;;;26.91;100.00;99709.56;4985237;28;20455;-86
2022/08/15 11:52:54;;;;;;;9.23;6.18;;;;;;;26.83;100.00;99745.13;4985837;28;20444;-86
2022/08/15 11:55:45;;;;;;;12.20;6.57;;;;;;;26.39;100.00;99746.69;5009748;28;20827;-84
2022/08/15 11:58:28;;;;;;;9.32;6.15;;;;;;;25.90;100.00;99752.19;5001068;28;20438;-87
2022/08/15 12:00:58;;;;;;;9.15;5.90;;;;;;;25.67;100.00;99747.91;4987026;28;20437;-89
2022/08/15 12:03:32;;;;;;;9.77;6.17;;;;;;;25.51;100.00;99756.78;4985041;28;20509;-86
2022/08/15 12:06:20;;;;;;;10.27;6.10;;;;;;;25.16;100.00;99758.44;4991163;28;20434;-85
2022/08/15 12:08:53;;;;;;;13.20;8.55;;;;;;;25.00;100.00;99761.69;4989380;28;20435;-86
2022/08/15 12:11:24;;;;;;;10.60;6.70;;;;;;;24.79;100.00;99760.53;5006296;28;20407;-86
2022/08/15 12:14:00;;;;;;;10.43;6.32;;;;;;;24.57;100.00;99756.94;5006243;28;20418;-88